Time;durP1;ratioP1;P1;durP2;ratioP2;P2;SDS_P1;SDS_P2;PMS_P1;PMS_P2;Temp;Humidity;BMP_temperature;BMP_pressure;BME280_temperature;BME280_humidity;BME280_pressure;Samples;Min_cycle;Max_cycle;Signal;HPM_P1;HPM_P2
2022/12/03 00:00:49;;;;;;;22.48;14.32;;;1.10;99.90;;;0.13;100.00;97742.75;5040838;28;20037;-72
2022/12/03 00:03:17;;;;;;;23.60;14.90;;;1.10;99.90;;;0.04;100.00;97747.84;5037890;28;20167;-72
2022/12/03 00:05:43;;;;;;;27.10;16.52;;;1.10;99.90;;;0.01;100.00;97747.84;5038672;28;20522;-72
2022/12/03 00:08:15;;;;;;;24.15;15.77;;;1.10;99.90;;;0.04;100.00;97752.97;5038482;28;20418;-71
2022/12/03 00:10:42;;;;;;;19.15;12.20;;;1.10;99.90;;;0.10;100.00;97754.69;5038790;28;20053;-72
2022/12/03 00:13:09;;;;;;;23.58;14.82;;;1.20;99.90;;;0.11;100.00;97752.13;5038670;28;20061;-72
2022/12/03 00:15:36;;;;;;;22.63;13.98;;;1.20;99.90;;;0.19;100.00;97752.16;5040067;28;20407;-72
2022/12/03 00:18:03;;;;;;;25.35;15.05;;;1.30;99.90;;;0.17;100.00;97754.69;5042512;28;20490;-70
2022/12/03 00:20:30;;;;;;;24.83;14.18;;;1.30;99.90;;;0.12;100.00;97753.00;5038793;28;20056;-72
2022/12/03 00:22:56;;;;;;;20.50;12.60;;;1.30;99.90;;;0.14;100.00;97751.31;5037012;28;20051;-71
2022/12/03 00:25:23;;;;;;;21.15;14.18;;;1.30;99.90;;;0.19;100.00;97747.03;5041177;28;20056;-72
2022/12/03 00:27:50;;;;;;;23.20;15.52;;;1.30;99.90;;;0.14;100.00;97747.03;5042091;28;20059;-71
2022/12/03 00:30:17;;;;;;;24.83;14.52;;;1.20;99.90;;;0.11;100.00;97741.91;5040191;28;20057;-72
2022/12/03 00:32:44;;;;;;;29.55;16.40;;;1.20;99.90;;;0.12;100.00;97741.06;5039135;28;20053;-70
2022/12/03 00:35:11;;;;;;;20.15;12.75;;;1.20;99.90;;;0.14;100.00;97748.75;5041977;28;20045;-71
2022/12/03 00:37:38;;;;;;;26.98;16.30;;;1.30;99.90;;;0.13;100.00;97742.75;5038885;28;20063;-72
2022/12/03 00:40:06;;;;;;;25.98;16.45;;;1.20;99.90;;;0.05;100.00;97743.63;5040147;28;20045;-70
2022/12/03 00:42:33;;;;;;;30.40;19.88;;;1.10;99.90;;;0.04;100.00;97741.91;5040215;28;20157;-71
2022/12/03 00:45:00;;;;;;;28.42;19.25;;;1.20;99.90;;;0.03;100.00;97741.06;5037172;28;20041;-72
2022/12/03 00:47:27;;;;;;;27.27;16.38;;;1.20;99.90;;;-0.01;100.00;97742.75;5041820;28;20059;-72
2022/12/03 00:49:53;;;;;;;24.17;16.02;;;1.10;99.90;;;0.11;100.00;97748.72;5041093;28;20041;-72
2022/12/03 00:52:20;;;;;;;25.33;16.38;;;1.20;99.90;;;0.02;100.00;97751.25;5042899;28;20414;-72
2022/12/03 00:54:48;;;;;;;26.92;16.38;;;1.10;99.90;;;0.03;100.00;97743.63;5037736;28;20049;-71
2022/12/03 00:57:15;;;;;;;23.45;14.82;;;1.10;99.90;;;0.09;100.00;97745.31;5041612;28;20472;-72
2022/12/03 00:59:42;;;;;;;30.02;18.10;;;1.20;99.90;;;0.07;100.00;97750.44;5037044;28;20045;-74
2022/12/03 01:02:09;;;;;;;23.13;14.45;;;1.20;99.90;;;0.18;100.00;97753.84;5039377;28;20120;-72
2022/12/03 01:04:36;;;;;;;21.25;12.98;;;1.20;99.90;;;0.08;100.00;97746.16;5039235;28;20128;-72
2022/12/03 01:07:03;;;;;;;26.65;15.88;;;1.20;99.90;;;0.14;100.00;97747.03;5038891;28;20053;-71
2022/12/03 01:09:31;;;;;;;20.17;13.32;;;1.20;99.90;;;0.06;100.00;97752.97;5041054;28;20680;-72
2022/12/03 01:11:58;;;;;;;30.48;18.05;;;1.20;99.90;;;0.11;100.00;97744.47;5038854;28;20116;-71
2022/12/03 01:14:25;;;;;;;38.95;22.77;;;1.20;99.90;;;0.04;100.00;97747.00;5037712;28;20052;-72
2022/12/03 01:16:52;;;;;;;26.98;16.40;;;1.20;99.90;;;-0.07;100.00;97749.53;5035687;28;20056;-72
2022/12/03 01:19:18;;;;;;;41.63;23.15;;;1.00;99.90;;;-0.01;100.00;97758.06;5037146;28;20041;-71
2022/12/03 01:21:50;;;;;;;42.47;22.38;;;1.10;99.90;;;0.06;100.00;97758.91;5041945;28;20490;-72
2022/12/03 01:24:18;;;;;;;24.75;15.43;;;1.10;99.90;;;0.04;100.00;97763.16;5036822;28;20049;-72
2022/12/03 01:26:45;;;;;;;21.77;13.93;;;1.10;99.90;;;0.06;100.00;97758.06;5040841;28;20151;-72
2022/12/03 01:29:13;;;;;;;22.65;13.68;;;1.10;99.90;;;0.16;100.00;97755.56;5041502;28;20112;-70
2022/12/03 01:34:25;;;;;;;26.10;15.90;;;1.20;99.90;;;0.03;100.00;97756.38;5039753;28;20048;-72
2022/12/03 01:36:52;;;;;;;26.95;15.73;;;1.10;99.90;;;-0.04;100.00;97763.16;5039581;28;20616;-72
2022/12/03 01:39:19;;;;;;;28.33;16.52;;;1.10;99.90;;;-0.02;100.00;97765.72;5037590;28;20041;-72
2022/12/03 01:41:49;;;;;;;22.02;13.57;;;1.00;99.90;;;-0.02;100.00;97764.03;5051493;28;20045;-71
2022/12/03 01:44:25;;;;;;;25.92;13.75;;;1.10;99.90;;;-0.02;100.00;97770.84;5039100;28;20067;-72
2022/12/03 01:46:55;;;;;;;36.08;19.13;;;1.10;99.90;;;-0.08;100.00;97774.19;5038107;28;20867;-71
2022/12/03 01:49:41;;;;;;;65.03;20.35;;;1.00;99.90;;;-0.16;100.00;97773.34;5036765;28;20790;-72
2022/12/03 01:52:19;;;;;;;39.13;21.00;;;0.90;99.90;;;-0.10;100.00;97770.78;5051962;28;20981;-72
2022/12/03 01:54:53;;;;;;;27.60;14.93;;;1.00;99.90;;;-0.03;100.00;97774.22;5038285;28;20049;-72
2022/12/03 01:57:44;;;;;;;25.23;14.85;;;1.00;99.90;;;-0.06;100.00;97769.97;5036814;28;20052;-72
2022/12/03 02:00:21;;;;;;;24.60;14.32;;;1.00;99.90;;;0.01;100.00;97770.81;5036914;28;20131;-72
2022/12/03 02:02:56;;;;;;;65.85;19.55;;;1.10;99.90;;;-0.02;100.00;97770.84;5039721;28;20127;-71
2022/12/03 02:05:29;;;;;;;39.85;15.52;;;1.10;99.90;;;-0.02;100.00;97779.34;5040610;28;20063;-70
2022/12/03 02:07:57;;;;;;;41.47;17.80;;;1.10;99.90;;;-0.04;100.00;97777.63;5041499;28;20049;-72
2022/12/03 02:10:32;;;;;;;60.67;16.88;;;1.10;99.90;;;-0.03;100.00;97774.22;5042639;28;20158;-72
2022/12/03 02:13:07;;;;;;;61.85;19.83;;;1.10;99.90;;;0.07;100.00;97778.50;5043646;28;20525;-72
2022/12/03 02:15:35;;;;;;;35.83;18.15;;;1.10;99.90;;;0.04;100.00;97783.59;5042843;28;20426;-71
2022/12/03 02:18:02;;;;;;;29.60;14.60;;;1.20;99.90;;;0.10;100.00;97772.56;5042712;28;20380;-70
2022/12/03 02:20:52;;;;;;;46.22;16.92;;;1.20;99.90;;;0.03;100.00;97775.94;5041881;28;20069;-71
2022/12/03 02:24:04;;;;;;;31.20;13.15;;;1.10;99.90;;;-0.06;100.00;97772.50;5042596;28;20054;-71
2022/12/03 02:26:32;;;;;;;71.20;20.95;;;1.10;99.90;;;0.01;100.00;97772.53;5038374;28;20123;-72
2022/12/03 02:28:58;;;;;;;40.75;17.95;;;1.10;99.90;;;0.01;100.00;97770.81;5038854;28;20375;-72
2022/12/03 02:31:25;;;;;;;74.75;19.90;;;1.20;99.90;;;0.07;100.00;97772.53;5043935;28;20063;-71
2022/12/03 02:33:53;;;;;;;45.10;16.77;;;1.10;99.90;;;0.08;100.00;97770.00;5043077;28;20534;-72
2022/12/03 02:36:20;;;;;;;45.45;16.73;;;1.20;99.90;;;0.05;100.00;97769.16;5044945;28;20122;-71
2022/12/03 02:38:48;;;;;;;94.13;21.15;;;1.20;99.90;;;-0.03;100.00;97764.84;5045393;28;20056;-70
2022/12/03 02:44:06;;;;;;;85.15;20.75;;;1.00;99.90;;;-0.14;100.00;97758.03;5044768;28;20091;-72
2022/12/03 02:46:33;;;;;;;93.25;21.38;;;1.00;99.90;;;-0.12;100.00;97758.88;5045357;28;20044;-71
2022/12/03 02:49:02;;;;;;;64.57;16.80;;;1.00;99.90;;;-0.08;100.00;97758.06;5046524;28;20053;-70
2022/12/03 02:51:29;;;;;;;139.32;25.20;;;1.00;99.90;;;-0.10;100.00;97759.75;5061265;28;20053;-72
2022/12/03 02:53:56;;;;;;;180.32;27.60;;;1.00;99.90;;;-0.18;100.00;97762.28;5044773;28;20050;-72
2022/12/03 02:56:28;;;;;;;73.22;20.08;;;0.90;99.90;;;-0.13;100.00;97762.28;5046950;28;20049;-72
2022/12/03 02:59:00;;;;;;;74.43;17.50;;;1.00;99.90;;;-0.20;100.00;97758.88;5045238;28;20785;-72
2022/12/03 03:01:27;;;;;;;160.20;26.35;;;0.90;99.90;;;-0.27;100.00;97755.44;5045702;28;20045;-71
2022/12/03 03:03:54;;;;;;;106.93;21.73;;;0.90;99.90;;;-0.18;100.00;97753.75;5044513;28;20118;-71
2022/12/03 03:06:37;;;;;;;114.90;23.37;;;0.90;99.90;;;-0.10;100.00;97762.28;5027982;28;20059;-71
2022/12/03 03:09:03;;;;;;;112.40;23.00;;;0.90;99.90;;;-0.09;100.00;97761.44;5045132;28;20057;-72
2022/12/03 03:11:30;;;;;;;280.42;28.42;;;1.00;99.90;;;-0.18;100.00;97767.38;5045505;28;20045;-71
2022/12/03 03:14:00;;;;;;;66.00;20.50;;;0.90;99.90;;;-0.19;100.00;97763.13;5042668;28;20056;-70
2022/12/03 03:16:27;;;;;;;237.20;29.90;;;1.00;99.90;;;-0.27;100.00;97762.25;5045276;28;20053;-72
2022/12/03 03:18:54;;;;;;;243.95;29.45;;;0.90;99.90;;;-0.26;100.00;97758.84;5040623;28;20115;-72
2022/12/03 03:21:21;;;;;;;88.15;20.52;;;0.90;99.90;;;-0.28;100.00;97757.97;5042487;28;20041;-72
2022/12/03 03:23:48;;;;;;;220.68;29.20;;;0.90;99.90;;;-0.29;100.00;97753.75;5038213;28;20045;-72
2022/12/03 03:26:15;;;;;;;94.72;23.88;;;0.80;99.90;;;-0.24;100.00;97757.16;5043995;28;20052;-70
2022/12/03 03:28:48;;;;;;;117.68;22.85;;;0.80;99.90;;;-0.26;100.00;97758.84;5044227;28;20219;-72
2022/12/03 03:31:20;;;;;;;70.47;19.42;;;0.90;99.90;;;-0.17;100.00;97750.38;5045932;28;20056;-71
2022/12/03 03:33:49;;;;;;;137.18;22.98;;;0.90;99.90;;;-0.13;100.00;97752.94;5040964;28;20517;-72
2022/12/03 03:36:16;;;;;;;44.50;19.02;;;0.90;99.90;;;-0.12;100.00;97748.69;5045037;28;20057;-71
2022/12/03 03:38:43;;;;;;;171.40;27.50;;;0.90;99.90;;;-0.15;100.00;97751.22;5045843;28;20053;-71
2022/12/03 03:41:12;;;;;;;105.70;25.38;;;0.90;99.90;;;-0.13;100.00;97741.88;5047236;28;20098;-71
2022/12/03 03:43:41;;;;;;;72.68;22.55;;;0.90;99.90;;;-0.05;100.00;97746.13;5046415;28;20056;-72
2022/12/03 03:46:09;;;;;;;103.20;24.73;;;1.00;99.90;;;-0.09;100.00;97741.91;5044124;28;20045;-72
2022/12/03 03:48:37;;;;;;;54.78;21.88;;;1.00;99.90;;;-0.09;100.00;97749.56;5042916;28;20052;-72
2022/12/03 03:51:08;;;;;;;49.08;18.85;;;1.00;99.90;;;-0.12;100.00;97743.56;5041346;28;20048;-72
2022/12/03 03:53:42;;;;;;;149.52;27.10;;;1.00;99.90;;;-0.08;100.00;97743.59;5043015;28;20053;-72
2022/12/03 03:56:10;;;;;;;107.28;24.63;;;1.00;99.90;;;-0.17;100.00;97740.16;5045168;28;20055;-72
2022/12/03 03:58:37;;;;;;;114.70;25.55;;;1.00;99.90;;;-0.10;100.00;97747.81;5056036;28;20045;-70
2022/12/03 04:01:04;;;;;;;108.53;26.52;;;1.00;99.90;;;-0.10;100.00;97740.16;5042522;28;20059;-72
2022/12/03 04:03:33;;;;;;;44.10;19.63;;;1.00;99.90;;;-0.12;100.00;97733.38;5036172;28;20072;-71
2022/12/03 04:06:00;;;;;;;81.10;24.65;;;1.00;99.90;;;-0.08;100.00;97733.38;5058486;28;20053;-71
2022/12/03 04:08:26;;;;;;;109.70;22.35;;;1.00;99.90;;;-0.14;100.00;97738.47;5046070;28;20257;-72
2022/12/03 04:13:39;;;;;;;76.97;23.88;;;1.10;99.90;;;-0.08;100.00;97737.63;5043044;28;20060;-72
2022/12/03 04:16:06;;;;;;;92.72;23.40;;;1.00;99.90;;;-0.05;100.00;97729.97;5045385;28;20049;-70
2022/12/03 04:18:42;;;;;;;72.18;25.70;;;1.10;99.90;;;-0.09;100.00;97738.47;5041803;28;20095;-72
2022/12/03 04:24:01;;;;;;;72.45;24.50;;;1.10;99.90;;;-0.04;100.00;97727.44;5041992;28;20050;-71
2022/12/03 04:29:14;;;;;;;119.20;28.50;;;1.10;99.90;;;-0.07;100.00;97724.00;5044195;28;20127;-71
2022/12/03 04:37:12;;;;;;;48.00;21.67;;;1.10;99.90;;;0.03;100.00;97725.75;5041149;28;20652;-72
2022/12/03 04:39:39;;;;;;;87.97;27.38;;;1.10;99.90;;;-0.07;100.00;97719.78;5041267;28;20413;-72
2022/12/03 04:42:07;;;;;;;120.40;30.45;;;1.00;99.90;;;-0.16;100.00;97712.13;5040199;28;20123;-73
2022/12/03 04:44:37;;;;;;;91.82;28.17;;;1.00;99.90;;;-0.13;100.00;97708.72;5046174;28;20208;-72
2022/12/03 04:47:17;;;;;;;74.82;26.83;;;1.00;99.90;;;-0.10;100.00;97712.09;5042466;28;20067;-72
2022/12/03 04:49:48;;;;;;;92.28;26.67;;;1.00;99.90;;;-0.12;100.00;97705.31;5040530;28;20522;-71
2022/12/03 04:52:17;;;;;;;76.57;26.33;;;1.00;99.90;;;-0.11;100.00;97707.03;5037415;28;20057;-70
2022/12/03 04:54:45;;;;;;;82.30;26.23;;;1.00;99.90;;;-0.11;100.00;97712.97;5056752;28;20727;-71
2022/12/03 04:57:12;;;;;;;82.63;27.10;;;0.90;99.90;;;-0.11;100.00;97707.03;5044523;28;20048;-72
2022/12/03 04:59:39;;;;;;;75.85;24.77;;;0.90;99.90;;;-0.15;100.00;97713.81;5058342;28;20055;-72
2022/12/03 05:02:06;;;;;;;77.95;23.50;;;0.90;99.90;;;-0.09;100.00;97712.94;5044445;28;20652;-71
2022/12/03 05:04:34;;;;;;;68.43;25.40;;;1.00;99.90;;;-0.14;100.00;97712.09;5043971;28;20102;-71
2022/12/03 05:07:01;;;;;;;66.45;24.88;;;1.00;99.90;;;-0.22;100.00;97710.38;5043089;28;20048;-72
2022/12/03 05:09:28;;;;;;;80.43;28.00;;;1.00;99.90;;;-0.17;100.00;97709.56;5044723;28;20051;-72
2022/12/03 05:11:54;;;;;;;78.65;24.95;;;0.90;99.90;;;-0.20;100.00;97710.41;5057846;28;20056;-72
2022/12/03 05:14:21;;;;;;;53.25;20.67;;;0.90;99.90;;;-0.11;100.00;97707.03;5043394;28;20056;-72
2022/12/03 05:16:48;;;;;;;66.93;24.15;;;1.00;99.90;;;-0.07;100.00;97712.13;5039819;28;20053;-71
2022/12/03 05:19:15;;;;;;;70.55;23.95;;;1.00;99.90;;;-0.11;100.00;97712.13;5044244;28;20087;-71
2022/12/03 05:21:42;;;;;;;57.28;21.65;;;1.00;99.90;;;-0.02;100.00;97714.69;5042034;28;20048;-71
2022/12/03 05:24:09;;;;;;;59.83;22.25;;;1.00;99.90;;;-0.13;100.00;97711.28;5042125;28;20040;-71
2022/12/03 05:26:36;;;;;;;51.38;22.60;;;0.90;99.90;;;-0.11;100.00;97710.41;5042697;28;20053;-72
2022/12/03 05:29:03;;;;;;;54.38;22.45;;;1.00;99.90;;;-0.11;100.00;97714.69;5042164;28;20059;-72
2022/12/03 05:31:30;;;;;;;37.35;19.77;;;1.00;99.90;;;-0.07;100.00;97703.59;5038218;28;20081;-72
2022/12/03 05:33:57;;;;;;;64.72;23.98;;;1.00;99.90;;;-0.03;100.00;97690.00;5044285;28;20128;-72
2022/12/03 05:36:24;;;;;;;47.13;21.85;;;1.00;99.90;;;-0.04;100.00;97701.06;5044465;28;20060;-71
2022/12/03 05:38:51;;;;;;;48.85;22.17;;;1.00;99.90;;;-0.12;100.00;97705.31;5047202;28;20049;-71
2022/12/03 05:44:03;;;;;;;52.78;21.30;;;1.00;99.90;;;-0.08;100.00;97700.22;5042886;28;20053;-72
2022/12/03 05:46:31;;;;;;;58.95;21.63;;;1.10;99.90;;;0.02;100.00;97697.66;5047554;28;20044;-72
2022/12/03 05:48:58;;;;;;;60.08;22.33;;;1.10;99.90;;;-0.06;100.00;97706.16;5047181;28;20060;-70
2022/12/03 05:51:25;;;;;;;45.75;20.52;;;1.00;99.90;;;0.03;100.00;97700.22;5048184;28;20058;-72
2022/12/03 05:53:52;;;;;;;47.47;21.63;;;1.00;99.90;;;-0.11;100.00;97694.25;5047687;28;20056;-72
2022/12/03 05:56:19;;;;;;;73.55;25.17;;;1.00;99.90;;;-0.03;100.00;97692.56;5049247;28;20403;-72
2022/12/03 05:58:45;;;;;;;52.92;20.65;;;1.00;99.90;;;-0.01;100.00;97694.25;5048657;28;20167;-72
2022/12/03 06:01:12;;;;;;;59.78;21.75;;;1.00;99.90;;;0.03;100.00;97697.69;5047793;28;20053;-72
2022/12/03 06:03:39;;;;;;;67.88;25.85;;;1.10;99.90;;;0.01;100.00;97696.81;5045516;28;20806;-72
2022/12/03 06:06:06;;;;;;;98.40;24.65;;;1.10;99.90;;;-0.04;100.00;97699.38;5061210;28;20111;-72
2022/12/03 06:08:33;;;;;;;73.28;25.60;;;1.10;99.90;;;0.01;100.00;97699.38;5042718;28;20037;-72
2022/12/03 06:11:00;;;;;;;82.80;26.17;;;1.10;99.90;;;-0.05;100.00;97707.00;5046549;28;20139;-72
2022/12/03 06:13:27;;;;;;;58.33;24.80;;;1.10;99.90;;;0.00;100.00;97705.34;5048278;28;20056;-72
2022/12/03 06:15:54;;;;;;;92.07;26.23;;;1.20;99.90;;;0.07;100.00;97712.16;5042870;28;20059;-71
2022/12/03 06:18:21;;;;;;;54.85;22.00;;;1.20;99.90;;;0.12;100.00;97713.00;5039861;28;20107;-72
2022/12/03 06:20:48;;;;;;;96.50;26.58;;;1.20;99.90;;;0.05;100.00;97706.19;5046118;28;20116;-71
2022/12/03 06:23:15;;;;;;;94.45;25.15;;;1.20;99.90;;;-0.06;100.00;97698.50;5045711;28;20053;-70
2022/12/03 06:25:41;;;;;;;83.82;26.67;;;1.20;99.90;;;-0.05;100.00;97700.19;5043483;28;20048;-72
2022/12/03 06:28:08;;;;;;;88.03;25.10;;;1.00;99.90;;;-0.09;100.00;97703.63;5049543;28;20049;-72
2022/12/03 06:30:35;;;;;;;64.22;25.08;;;1.10;99.90;;;0.06;100.00;97692.56;5046922;28;20429;-72
2022/12/03 06:33:02;;;;;;;76.97;24.98;;;1.10;99.90;;;0.04;100.00;97694.25;5045490;28;20057;-72
2022/12/03 06:35:29;;;;;;;93.07;28.48;;;1.10;99.90;;;0.01;100.00;97686.63;5046836;28;20055;-71
2022/12/03 06:37:56;;;;;;;93.75;26.77;;;1.00;99.90;;;0.00;100.00;97684.94;5047037;28;20738;-72
2022/12/03 06:40:23;;;;;;;85.40;27.42;;;1.10;99.90;;;-0.04;100.00;97683.22;5045671;28;20057;-71
2022/12/03 06:42:51;;;;;;;76.07;26.50;;;1.00;99.90;;;0.05;100.00;97684.94;5049095;28;20095;-72
2022/12/03 06:45:18;;;;;;;113.35;29.42;;;1.00;99.90;;;-0.06;100.00;97679.81;5046011;28;20179;-71
2022/12/03 06:47:45;;;;;;;57.58;24.38;;;1.00;99.90;;;-0.10;100.00;97683.19;5062236;28;20093;-72
2022/12/03 06:50:12;;;;;;;72.28;23.65;;;1.00;99.90;;;-0.10;100.00;97683.19;5044301;28;20455;-71
2022/12/03 06:52:39;;;;;;;71.75;26.02;;;1.00;99.90;;;-0.04;100.00;97689.16;5046277;28;20457;-71
2022/12/03 06:55:07;;;;;;;138.85;33.00;;;1.00;99.90;;;-0.11;100.00;97690.00;5047805;28;20056;-71
2022/12/03 06:57:34;;;;;;;105.05;30.98;;;0.90;99.90;;;-0.08;100.00;97687.44;5043501;28;20060;-71
2022/12/03 07:00:02;;;;;;;71.35;27.20;;;1.00;99.90;;;-0.03;100.00;97687.47;5040966;28;20052;-72
2022/12/03 07:02:29;;;;;;;70.63;28.02;;;1.00;99.90;;;0.04;100.00;97689.16;5038359;28;20577;-72
2022/12/03 07:04:56;;;;;;;48.20;22.70;;;1.10;99.90;;;0.11;100.00;97692.56;5045636;28;20801;-71
2022/12/03 07:07:23;;;;;;;45.45;22.33;;;1.20;99.90;;;0.16;100.00;97694.28;5044632;28;20049;-72
2022/12/03 07:09:50;;;;;;;135.55;31.98;;;1.20;99.90;;;-0.01;100.00;97699.34;5048660;28;20399;-72
2022/12/03 07:12:17;;;;;;;77.25;26.65;;;1.10;99.90;;;0.06;100.00;97707.03;5045645;28;20061;-72
2022/12/03 07:14:44;;;;;;;85.75;29.23;;;1.10;99.90;;;0.06;100.00;97695.13;5045259;28;20052;-70
2022/12/03 07:17:11;;;;;;;71.63;27.00;;;1.10;99.90;;;0.14;100.00;97705.34;5045130;28;20050;-71
2022/12/03 07:19:37;;;;;;;54.58;26.40;;;1.20;99.90;;;0.13;100.00;97706.19;5042323;28;20060;-72
2022/12/03 07:22:05;;;;;;;77.35;29.45;;;1.20;99.90;;;0.03;100.00;97704.50;5042670;28;20060;-72
2022/12/03 07:24:31;;;;;;;84.68;29.90;;;1.20;99.90;;;0.05;100.00;97705.34;5046119;28;20051;-72
2022/12/03 07:26:58;;;;;;;70.95;26.27;;;1.10;99.90;;;0.13;100.00;97706.19;5047571;28;20062;-72
2022/12/03 07:29:25;;;;;;;78.43;28.88;;;1.20;99.90;;;0.17;100.00;97703.63;5044203;28;20046;-72
2022/12/03 07:31:52;;;;;;;49.13;23.52;;;1.30;99.90;;;0.16;100.00;97701.06;5045648;28;20064;-71
2022/12/03 07:34:20;;;;;;;57.50;25.02;;;1.40;99.90;;;0.30;100.00;97696.00;5045505;28;20045;-71
2022/12/03 07:36:47;;;;;;;46.88;23.63;;;1.40;99.90;;;0.31;100.00;97700.25;5044036;28;20053;-71
2022/12/03 07:39:14;;;;;;;49.70;24.63;;;1.40;99.90;;;0.33;100.00;97706.19;5050655;28;20418;-72
2022/12/03 07:41:41;;;;;;;49.90;25.10;;;1.50;99.90;;;0.25;100.00;97701.09;5042039;28;20491;-72
2022/12/03 07:44:08;;;;;;;51.80;25.20;;;1.50;99.90;;;0.34;100.00;97707.88;5045961;28;20041;-72
2022/12/03 07:46:41;;;;;;;58.08;25.63;;;1.50;99.90;;;0.30;100.00;97706.22;5047162;28;20063;-71
2022/12/03 07:49:08;;;;;;;55.97;26.75;;;1.50;99.90;;;0.37;100.00;97706.19;5042840;28;20562;-71
2022/12/03 07:51:35;;;;;;;51.22;23.98;;;1.50;99.90;;;0.44;100.00;97707.06;5042979;28;20063;-71
2022/12/03 07:54:02;;;;;;;61.78;25.08;;;1.50;99.90;;;0.31;100.00;97702.78;5041206;28;20063;-72
2022/12/03 07:56:29;;;;;;;64.10;27.30;;;1.50;99.90;;;0.42;100.00;97706.19;5043033;28;20063;-72
2022/12/03 07:58:57;;;;;;;75.55;30.52;;;1.50;99.90;;;0.39;100.00;97706.22;5046499;28;20072;-72
2022/12/03 08:01:24;;;;;;;56.15;25.77;;;1.50;99.90;;;0.34;100.00;97706.22;5046963;28;20075;-72
2022/12/03 08:03:51;;;;;;;65.28;28.02;;;1.50;99.90;;;0.33;100.00;97708.75;5042831;28;20639;-72
2022/12/03 08:06:17;;;;;;;82.03;29.88;;;1.50;99.90;;;0.29;100.00;97705.34;5044478;28;20040;-72
2022/12/03 08:08:44;;;;;;;81.03;32.30;;;1.50;99.90;;;0.32;100.00;97707.91;5042941;28;20056;-72
2022/12/03 08:11:14;;;;;;;82.57;27.90;;;1.40;99.90;;;0.35;100.00;97714.72;5045690;28;20049;-70
2022/12/03 08:13:41;;;;;;;76.55;29.88;;;1.40;99.90;;;0.31;100.00;97708.75;5043506;28;20075;-72
2022/12/03 08:16:19;;;;;;;56.58;26.33;;;1.40;99.90;;;0.37;100.00;97710.47;5043179;28;20053;-72
2022/12/03 08:18:48;;;;;;;63.70;27.95;;;1.50;99.90;;;0.39;100.00;97701.94;5042466;28;20059;-72
2022/12/03 08:21:18;;;;;;;66.22;30.20;;;1.50;99.90;;;0.33;100.00;97704.50;5041598;28;20501;-72
2022/12/03 08:23:46;;;;;;;81.55;33.33;;;1.40;99.90;;;0.27;100.00;97684.06;5040294;28;20068;-71
2022/12/03 08:26:23;;;;;;;70.45;31.52;;;1.40;99.90;;;0.35;100.00;97692.59;5045728;28;20063;-71
2022/12/03 08:28:52;;;;;;;81.47;33.42;;;1.40;99.90;;;0.35;100.00;97684.91;5056689;28;20041;-72
2022/12/03 08:31:24;;;;;;;94.03;36.35;;;1.40;99.90;;;0.33;100.00;97690.88;5042466;28;20055;-71
2022/12/03 08:34:19;;;;;;;109.30;46.20;;;1.40;99.90;;;0.36;100.00;97694.28;5042739;28;20052;-72
2022/12/03 08:36:50;;;;;;;104.20;48.80;;;1.50;99.90;;;0.45;100.00;97693.41;5042194;28;20422;-72
2022/12/03 08:39:47;;;;;;;76.28;31.70;;;1.60;99.90;;;0.48;100.00;97680.66;5044858;28;20059;-71
2022/12/03 08:42:41;;;;;;;105.20;35.97;;;1.60;99.90;;;0.56;100.00;97690.88;5041687;28;20057;-71
2022/12/03 08:45:38;;;;;;;70.32;32.60;;;1.60;99.90;;;0.44;100.00;97684.06;5044427;28;20051;-71
2022/12/03 08:48:37;;;;;;;82.82;37.33;;;1.60;99.90;;;0.47;100.00;97678.94;5036768;28;20106;-70
2022/12/03 08:51:19;;;;;;;77.20;33.22;;;1.50;99.90;;;0.44;100.00;97680.69;5044564;28;20045;-70
2022/12/03 08:53:52;;;;;;;98.43;37.30;;;1.50;99.90;;;0.27;100.00;97681.50;5045143;28;20176;-72
2022/12/03 08:56:29;;;;;;;90.35;39.78;;;1.40;99.90;;;0.33;100.00;97680.66;5042623;28;20151;-71
2022/12/03 08:59:30;;;;;;;90.65;39.05;;;1.50;99.90;;;0.27;100.00;97678.09;5045742;28;20044;-72
2022/12/03 09:01:58;;;;;;;66.07;28.63;;;1.40;99.90;;;0.26;100.00;97677.25;5057865;28;20540;-71
2022/12/03 09:04:44;;;;;;;90.97;36.10;;;1.50;99.90;;;0.32;100.00;97684.94;5037629;28;20053;-71
2022/12/03 09:07:11;;;;;;;95.65;35.95;;;1.40;99.90;;;0.26;100.00;97690.03;5042068;28;20486;-71
2022/12/03 09:09:39;;;;;;;79.55;32.72;;;1.40;99.90;;;0.26;100.00;97684.91;5041880;28;20136;-70
2022/12/03 09:12:06;;;;;;;64.13;28.30;;;1.40;99.90;;;0.40;100.00;97684.91;5041086;28;20049;-71
2022/12/03 09:14:32;;;;;;;63.40;28.33;;;1.60;99.90;;;0.35;100.00;97686.63;5042388;28;20059;-70
2022/12/03 09:16:59;;;;;;;48.03;25.25;;;1.50;99.90;;;0.46;100.00;97697.69;5040252;28;20057;-71
2022/12/03 09:19:29;;;;;;;59.40;28.95;;;1.60;99.90;;;0.59;100.00;97690.84;5039124;28;20807;-72
2022/12/03 09:21:56;;;;;;;65.22;28.35;;;1.70;99.90;;;0.65;100.00;97684.91;5046211;28;20056;-71
2022/12/03 09:24:23;;;;;;;68.63;30.73;;;1.90;99.90;;;0.70;100.00;97689.13;5040432;28;20049;-71
2022/12/03 09:26:50;;;;;;;74.25;36.95;;;1.90;99.90;;;0.69;100.00;97699.38;5045731;28;20736;-72
2022/12/03 09:29:17;;;;;;;69.35;29.98;;;1.90;99.90;;;0.50;100.00;97699.41;5044702;28;20052;-71
2022/12/03 09:31:44;;;;;;;67.32;31.13;;;1.70;99.90;;;0.40;100.00;97695.97;5042618;28;20063;-70
2022/12/03 09:34:11;;;;;;;72.28;37.15;;;1.60;99.90;;;0.51;100.00;97700.25;5039499;28;20126;-71
2022/12/03 09:36:38;;;;;;;71.22;31.10;;;1.70;99.90;;;0.42;100.00;97698.53;5041067;28;20456;-70
2022/12/03 09:39:06;;;;;;;80.90;44.30;;;1.50;99.90;;;0.49;100.00;97700.22;5046085;28;20095;-71
2022/12/03 09:41:33;;;;;;;73.60;36.72;;;1.60;99.90;;;0.53;100.00;97694.28;5043659;28;20124;-71
2022/12/03 09:44:01;;;;;;;66.30;28.98;;;1.60;99.90;;;0.53;100.00;97688.31;5059443;28;20802;-71
2022/12/03 09:46:31;;;;;;;95.55;52.17;;;1.60;99.90;;;0.54;100.00;97683.19;5041332;28;20162;-71
2022/12/03 09:49:00;;;;;;;76.90;34.95;;;1.60;99.90;;;0.65;100.00;97682.34;5054931;28;20045;-71
2022/12/03 09:51:33;;;;;;;65.28;28.88;;;1.70;99.90;;;0.63;100.00;97682.34;5041110;28;20060;-71
2022/12/03 09:54:05;;;;;;;95.03;46.20;;;1.80;99.90;;;0.65;100.00;97684.91;5043971;28;20626;-71
2022/12/03 09:56:35;;;;;;;126.05;64.40;;;1.80;99.90;;;0.61;100.00;97676.38;5039676;28;20053;-70
2022/12/03 09:59:12;;;;;;;67.47;30.90;;;1.80;99.90;;;0.68;100.00;97672.94;5043580;28;20053;-70
2022/12/03 10:01:39;;;;;;;71.63;29.33;;;1.80;99.90;;;0.86;100.00;97673.78;5041673;28;20482;-70
2022/12/03 10:04:06;;;;;;;61.40;28.30;;;2.00;99.90;;;0.79;100.00;97665.28;5041795;28;20363;-71
2022/12/03 10:06:34;;;;;;;64.20;29.33;;;1.90;99.90;;;0.82;100.00;97655.91;5038129;28;20564;-70
2022/12/03 10:09:01;;;;;;;55.13;27.48;;;2.00;99.90;;;0.86;100.00;97654.19;5036251;28;20053;-71
2022/12/03 10:11:29;;;;;;;60.53;28.83;;;2.00;99.90;;;0.84;100.00;97658.44;5017869;28;20053;-70
2022/12/03 10:13:57;;;;;;;61.08;28.67;;;2.00;99.90;;;0.79;100.00;97655.91;5032357;28;20136;-70
2022/12/03 10:16:26;;;;;;;59.28;28.40;;;2.00;99.90;;;0.98;100.00;97650.72;5036674;28;20055;-70
2022/12/03 10:18:58;;;;;;;60.72;26.98;;;2.00;99.90;;;0.94;100.00;97651.63;5026542;28;20057;-71
2022/12/03 10:21:36;;;;;;;55.80;26.25;;;2.10;99.90;;;0.94;100.00;97654.19;5043334;28;20131;-71
2022/12/03 10:24:32;;;;;;;52.85;24.90;;;2.10;99.90;;;0.82;100.00;97648.25;5059858;28;20107;-71
2022/12/03 10:27:18;;;;;;;52.38;26.15;;;2.00;99.90;;;0.77;100.00;97636.31;5040390;28;20072;-70
2022/12/03 10:29:57;;;;;;;53.00;25.23;;;2.10;99.90;;;0.95;100.00;97632.88;5044405;28;20049;-70
2022/12/03 10:32:37;;;;;;;67.47;29.60;;;2.20;99.90;;;0.96;100.00;97635.41;5058172;28;20053;-70
2022/12/03 10:35:16;;;;;;;47.92;24.98;;;2.20;99.90;;;1.01;100.00;97635.41;5058239;28;20059;-71
2022/12/03 10:38:15;;;;;;;55.33;26.10;;;2.30;99.90;;;1.01;100.00;97641.38;5047611;28;20057;-70
2022/12/03 10:40:42;;;;;;;49.75;24.30;;;2.20;99.90;;;1.20;100.00;97637.00;5043631;28;20045;-70
2022/12/03 10:43:18;;;;;;;55.13;26.83;;;2.30;99.90;;;1.41;100.00;97632.66;5046306;28;20053;-70